Terminal Aerodrome Forecast
Issued by NWS

Home | Current Version | Previous Version | Text Only | Print | Product List | Glossary On
Versions: 1 2 3 4 5 6 7 8 9 10 11 12 13 14 15 16 17 18 19 20
767
FTUS43 KSGF 190144 AAA
TAFJLN
TAF AMD
KJLN 190144Z 1902/1924 00000KT P6SM SKC
     FM190900 17004KT P6SM SCT050
     FM191000 16004KT P6SM BKN025
     FM191200 15005KT 5SM BR BKN015
     FM191500 15006KT P6SM BKN025
     FM191900 15008KT P6SM BKN060=

USA.gov is the U.S. government's official web portal to all federal, state and local government web resources and services.